sensor_id;sensor_type;location;lat;lon;timestamp;P1;durP1;ratioP1;P2;durP2;ratioP2
65613;SDS011;52283;49.292;10.572;2024-01-16T00:00:54;9.82;;;4.70;;
65613;SDS011;52283;49.292;10.572;2024-01-16T00:03:21;6.18;;;3.58;;
65613;SDS011;52283;49.292;10.572;2024-01-16T00:05:49;8.50;;;4.45;;
65613;SDS011;52283;49.292;10.572;2024-01-16T00:08:15;8.50;;;4.20;;
65613;SDS011;52283;49.292;10.572;2024-01-16T00:10:41;9.93;;;4.60;;
65613;SDS011;52283;49.292;10.572;2024-01-16T00:13:08;9.25;;;5.15;;
65613;SDS011;52283;49.292;10.572;2024-01-16T00:15:34;13.27;;;4.53;;
65613;SDS011;52283;49.292;10.572;2024-01-16T00:18:01;8.18;;;3.97;;
65613;SDS011;52283;49.292;10.572;2024-01-16T00:20:27;10.35;;;4.05;;
65613;SDS011;52283;49.292;10.572;2024-01-16T00:22:55;7.47;;;3.78;;
65613;SDS011;52283;49.292;10.572;2024-01-16T00:25:22;15.52;;;5.32;;
65613;SDS011;52283;49.292;10.572;2024-01-16T00:27:48;6.82;;;4.57;;
65613;SDS011;52283;49.292;10.572;2024-01-16T00:30:15;9.90;;;5.15;;
65613;SDS011;52283;49.292;10.572;2024-01-16T00:32:41;15.02;;;6.47;;
65613;SDS011;52283;49.292;10.572;2024-01-16T00:35:08;8.02;;;6.00;;
65613;SDS011;52283;49.292;10.572;2024-01-16T00:37:35;8.07;;;4.05;;
65613;SDS011;52283;49.292;10.572;2024-01-16T00:40:04;11.00;;;5.25;;
65613;SDS011;52283;49.292;10.572;2024-01-16T00:45:00;13.57;;;5.72;;
65613;SDS011;52283;49.292;10.572;2024-01-16T00:47:27;8.95;;;5.15;;
65613;SDS011;52283;49.292;10.572;2024-01-16T00:49:53;20.17;;;6.10;;
65613;SDS011;52283;49.292;10.572;2024-01-16T00:52:19;10.32;;;5.65;;
65613;SDS011;52283;49.292;10.572;2024-01-16T00:54:46;11.07;;;5.20;;
65613;SDS011;52283;49.292;10.572;2024-01-16T00:57:15;12.38;;;5.65;;
65613;SDS011;52283;49.292;10.572;2024-01-16T00:59:44;8.77;;;5.05;;
65613;SDS011;52283;49.292;10.572;2024-01-16T01:02:11;7.05;;;4.88;;
65613;SDS011;52283;49.292;10.572;2024-01-16T01:04:37;9.68;;;5.95;;
65613;SDS011;52283;49.292;10.572;2024-01-16T01:07:03;9.23;;;4.30;;
65613;SDS011;52283;49.292;10.572;2024-01-16T01:09:32;9.57;;;5.40;;
65613;SDS011;52283;49.292;10.572;2024-01-16T01:11:58;9.10;;;4.78;;
65613;SDS011;52283;49.292;10.572;2024-01-16T01:14:26;8.98;;;5.07;;
65613;SDS011;52283;49.292;10.572;2024-01-16T01:16:54;11.77;;;6.55;;
65613;SDS011;52283;49.292;10.572;2024-01-16T01:19:21;12.45;;;5.88;;
65613;SDS011;52283;49.292;10.572;2024-01-16T01:21:47;11.93;;;5.43;;
65613;SDS011;52283;49.292;10.572;2024-01-16T01:24:14;9.93;;;4.97;;
65613;SDS011;52283;49.292;10.572;2024-01-16T01:26:42;11.57;;;6.25;;
65613;SDS011;52283;49.292;10.572;2024-01-16T01:29:08;8.45;;;4.38;;
65613;SDS011;52283;49.292;10.572;2024-01-16T01:31:36;8.27;;;4.43;;
65613;SDS011;52283;49.292;10.572;2024-01-16T01:34:03;11.45;;;5.65;;
65613;SDS011;52283;49.292;10.572;2024-01-16T01:36:30;8.40;;;5.07;;
65613;SDS011;52283;49.292;10.572;2024-01-16T01:38:56;9.80;;;5.75;;
65613;SDS011;52283;49.292;10.572;2024-01-16T01:41:22;12.68;;;5.45;;
65613;SDS011;52283;49.292;10.572;2024-01-16T01:43:49;11.30;;;5.25;;
65613;SDS011;52283;49.292;10.572;2024-01-16T01:46:16;9.50;;;5.65;;
65613;SDS011;52283;49.292;10.572;2024-01-16T01:48:46;11.30;;;5.43;;
65613;SDS011;52283;49.292;10.572;2024-01-16T01:51:14;8.80;;;5.38;;
65613;SDS011;52283;49.292;10.572;2024-01-16T01:53:43;12.95;;;5.70;;
65613;SDS011;52283;49.292;10.572;2024-01-16T01:56:11;11.93;;;5.72;;
65613;SDS011;52283;49.292;10.572;2024-01-16T01:58:41;14.43;;;5.50;;
65613;SDS011;52283;49.292;10.572;2024-01-16T02:01:09;12.57;;;5.00;;
65613;SDS011;52283;49.292;10.572;2024-01-16T02:03:39;12.43;;;5.50;;
65613;SDS011;52283;49.292;10.572;2024-01-16T02:06:09;12.90;;;6.15;;
65613;SDS011;52283;49.292;10.572;2024-01-16T02:08:36;8.50;;;5.25;;
65613;SDS011;52283;49.292;10.572;2024-01-16T02:11:03;16.85;;;6.18;;
65613;SDS011;52283;49.292;10.572;2024-01-16T02:13:30;7.45;;;4.47;;
65613;SDS011;52283;49.292;10.572;2024-01-16T02:15:57;7.90;;;4.88;;
65613;SDS011;52283;49.292;10.572;2024-01-16T02:18:24;9.20;;;5.13;;
65613;SDS011;52283;49.292;10.572;2024-01-16T02:20:50;8.65;;;5.10;;
65613;SDS011;52283;49.292;10.572;2024-01-16T02:23:21;9.18;;;4.80;;
65613;SDS011;52283;49.292;10.572;2024-01-16T02:25:52;12.10;;;5.07;;
65613;SDS011;52283;49.292;10.572;2024-01-16T02:28:19;22.02;;;5.15;;
65613;SDS011;52283;49.292;10.572;2024-01-16T02:30:45;9.20;;;5.10;;
65613;SDS011;52283;49.292;10.572;2024-01-16T02:33:12;13.40;;;5.93;;
65613;SDS011;52283;49.292;10.572;2024-01-16T02:35:38;10.32;;;5.07;;
65613;SDS011;52283;49.292;10.572;2024-01-16T02:38:05;11.45;;;5.40;;
65613;SDS011;52283;49.292;10.572;2024-01-16T02:40:33;14.57;;;6.00;;
65613;SDS011;52283;49.292;10.572;2024-01-16T02:42:59;8.25;;;5.28;;
65613;SDS011;52283;49.292;10.572;2024-01-16T02:45:26;11.70;;;5.05;;
65613;SDS011;52283;49.292;10.572;2024-01-16T02:47:52;13.32;;;6.45;;
65613;SDS011;52283;49.292;10.572;2024-01-16T02:50:18;8.95;;;4.78;;
65613;SDS011;52283;49.292;10.572;2024-01-16T02:52:46;12.98;;;7.28;;
65613;SDS011;52283;49.292;10.572;2024-01-16T02:55:12;13.82;;;4.97;;
65613;SDS011;52283;49.292;10.572;2024-01-16T02:57:41;10.63;;;5.68;;
65613;SDS011;52283;49.292;10.572;2024-01-16T03:00:07;11.82;;;5.55;;
65613;SDS011;52283;49.292;10.572;2024-01-16T03:02:34;9.52;;;5.50;;
65613;SDS011;52283;49.292;10.572;2024-01-16T03:05:02;10.77;;;5.47;;
65613;SDS011;52283;49.292;10.572;2024-01-16T03:07:30;8.73;;;5.25;;
65613;SDS011;52283;49.292;10.572;2024-01-16T03:09:56;9.38;;;4.68;;
65613;SDS011;52283;49.292;10.572;2024-01-16T03:12:23;11.18;;;4.47;;
65613;SDS011;52283;49.292;10.572;2024-01-16T03:14:51;13.63;;;5.18;;
65613;SDS011;52283;49.292;10.572;2024-01-16T03:17:18;13.07;;;6.20;;
65613;SDS011;52283;49.292;10.572;2024-01-16T03:19:45;13.50;;;5.47;;
65613;SDS011;52283;49.292;10.572;2024-01-16T03:22:11;9.70;;;4.85;;
65613;SDS011;52283;49.292;10.572;2024-01-16T03:24:38;12.32;;;5.13;;
65613;SDS011;52283;49.292;10.572;2024-01-16T03:27:04;16.42;;;6.97;;
65613;SDS011;52283;49.292;10.572;2024-01-16T03:29:30;8.85;;;5.82;;
65613;SDS011;52283;49.292;10.572;2024-01-16T03:32:00;12.45;;;5.72;;
65613;SDS011;52283;49.292;10.572;2024-01-16T03:34:27;13.20;;;6.10;;
65613;SDS011;52283;49.292;10.572;2024-01-16T03:36:53;11.07;;;5.57;;
65613;SDS011;52283;49.292;10.572;2024-01-16T03:39:20;9.35;;;5.63;;
65613;SDS011;52283;49.292;10.572;2024-01-16T03:41:47;15.70;;;6.35;;
65613;SDS011;52283;49.292;10.572;2024-01-16T03:44:14;10.88;;;5.32;;
65613;SDS011;52283;49.292;10.572;2024-01-16T03:46:40;11.73;;;7.00;;
65613;SDS011;52283;49.292;10.572;2024-01-16T03:49:08;15.15;;;5.20;;
65613;SDS011;52283;49.292;10.572;2024-01-16T03:51:34;11.80;;;5.72;;
65613;SDS011;52283;49.292;10.572;2024-01-16T03:54:01;12.15;;;5.95;;
65613;SDS011;52283;49.292;10.572;2024-01-16T03:56:28;12.93;;;6.53;;
65613;SDS011;52283;49.292;10.572;2024-01-16T03:58:54;10.57;;;4.93;;
65613;SDS011;52283;49.292;10.572;2024-01-16T04:01:29;9.75;;;5.82;;
65613;SDS011;52283;49.292;10.572;2024-01-16T04:03:56;13.65;;;5.30;;
65613;SDS011;52283;49.292;10.572;2024-01-16T04:06:24;14.85;;;6.75;;
65613;SDS011;52283;49.292;10.572;2024-01-16T04:08:51;14.98;;;6.25;;
65613;SDS011;52283;49.292;10.572;2024-01-16T04:11:17;14.70;;;6.35;;
65613;SDS011;52283;49.292;10.572;2024-01-16T04:13:44;12.00;;;5.47;;
65613;SDS011;52283;49.292;10.572;2024-01-16T04:16:11;16.90;;;7.00;;
65613;SDS011;52283;49.292;10.572;2024-01-16T04:18:38;8.93;;;5.18;;
65613;SDS011;52283;49.292;10.572;2024-01-16T04:21:06;9.90;;;5.45;;
65613;SDS011;52283;49.292;10.572;2024-01-16T04:23:34;15.55;;;6.82;;
65613;SDS011;52283;49.292;10.572;2024-01-16T04:26:00;11.55;;;6.03;;
65613;SDS011;52283;49.292;10.572;2024-01-16T04:28:27;7.63;;;4.72;;
65613;SDS011;52283;49.292;10.572;2024-01-16T04:30:54;17.77;;;6.85;;
65613;SDS011;52283;49.292;10.572;2024-01-16T04:33:20;13.95;;;7.00;;
65613;SDS011;52283;49.292;10.572;2024-01-16T04:35:47;11.90;;;5.43;;
65613;SDS011;52283;49.292;10.572;2024-01-16T04:38:13;13.75;;;6.03;;
65613;SDS011;52283;49.292;10.572;2024-01-16T04:40:41;8.60;;;5.35;;
65613;SDS011;52283;49.292;10.572;2024-01-16T04:43:07;11.35;;;5.60;;
65613;SDS011;52283;49.292;10.572;2024-01-16T04:45:34;18.75;;;6.97;;
65613;SDS011;52283;49.292;10.572;2024-01-16T04:48:01;14.43;;;7.72;;
65613;SDS011;52283;49.292;10.572;2024-01-16T04:50:28;16.55;;;6.95;;
65613;SDS011;52283;49.292;10.572;2024-01-16T04:52:56;13.23;;;6.25;;
65613;SDS011;52283;49.292;10.572;2024-01-16T04:55:24;13.15;;;6.05;;
65613;SDS011;52283;49.292;10.572;2024-01-16T04:57:53;17.90;;;7.80;;
65613;SDS011;52283;49.292;10.572;2024-01-16T05:00:20;16.90;;;6.15;;
65613;SDS011;52283;49.292;10.572;2024-01-16T05:02:46;12.35;;;6.93;;
65613;SDS011;52283;49.292;10.572;2024-01-16T05:05:13;13.57;;;6.63;;
65613;SDS011;52283;49.292;10.572;2024-01-16T05:07:40;15.50;;;7.53;;
65613;SDS011;52283;49.292;10.572;2024-01-16T05:10:09;14.90;;;6.28;;
65613;SDS011;52283;49.292;10.572;2024-01-16T05:12:37;14.03;;;7.10;;
65613;SDS011;52283;49.292;10.572;2024-01-16T05:15:05;14.27;;;6.50;;
65613;SDS011;52283;49.292;10.572;2024-01-16T05:17:33;16.30;;;7.03;;
65613;SDS011;52283;49.292;10.572;2024-01-16T05:19:59;12.88;;;6.65;;
65613;SDS011;52283;49.292;10.572;2024-01-16T05:22:30;13.98;;;6.75;;
65613;SDS011;52283;49.292;10.572;2024-01-16T05:24:56;16.33;;;6.90;;
65613;SDS011;52283;49.292;10.572;2024-01-16T05:27:23;14.38;;;8.20;;
65613;SDS011;52283;49.292;10.572;2024-01-16T05:29:50;23.38;;;8.90;;
65613;SDS011;52283;49.292;10.572;2024-01-16T05:32:18;14.18;;;6.40;;
65613;SDS011;52283;49.292;10.572;2024-01-16T05:34:44;12.90;;;6.32;;
65613;SDS011;52283;49.292;10.572;2024-01-16T05:37:11;14.25;;;7.18;;
65613;SDS011;52283;49.292;10.572;2024-01-16T05:39:38;14.90;;;7.57;;
65613;SDS011;52283;49.292;10.572;2024-01-16T05:42:05;19.67;;;6.90;;
65613;SDS011;52283;49.292;10.572;2024-01-16T05:44:31;15.82;;;6.70;;
65613;SDS011;52283;49.292;10.572;2024-01-16T05:46:57;15.90;;;7.55;;
65613;SDS011;52283;49.292;10.572;2024-01-16T05:49:25;19.02;;;7.30;;
65613;SDS011;52283;49.292;10.572;2024-01-16T05:51:51;17.00;;;7.50;;
65613;SDS011;52283;49.292;10.572;2024-01-16T05:54:18;19.55;;;7.93;;
65613;SDS011;52283;49.292;10.572;2024-01-16T05:56:44;14.32;;;6.43;;
65613;SDS011;52283;49.292;10.572;2024-01-16T05:59:11;14.63;;;6.95;;
65613;SDS011;52283;49.292;10.572;2024-01-16T06:01:37;15.20;;;7.20;;
65613;SDS011;52283;49.292;10.572;2024-01-16T06:04:04;12.10;;;6.03;;
65613;SDS011;52283;49.292;10.572;2024-01-16T06:06:31;13.82;;;6.80;;
65613;SDS011;52283;49.292;10.572;2024-01-16T06:08:58;14.93;;;6.55;;
65613;SDS011;52283;49.292;10.572;2024-01-16T06:11:30;20.90;;;7.85;;
65613;SDS011;52283;49.292;10.572;2024-01-16T06:13:56;18.75;;;7.65;;
65613;SDS011;52283;49.292;10.572;2024-01-16T06:16:23;17.02;;;7.03;;
65613;SDS011;52283;49.292;10.572;2024-01-16T06:18:50;19.27;;;7.00;;
65613;SDS011;52283;49.292;10.572;2024-01-16T06:21:16;14.35;;;6.55;;
65613;SDS011;52283;49.292;10.572;2024-01-16T06:23:44;20.15;;;8.00;;
65613;SDS011;52283;49.292;10.572;2024-01-16T06:26:10;14.38;;;6.43;;
65613;SDS011;52283;49.292;10.572;2024-01-16T06:28:37;16.67;;;7.00;;
65613;SDS011;52283;49.292;10.572;2024-01-16T06:31:03;16.50;;;5.68;;
65613;SDS011;52283;49.292;10.572;2024-01-16T06:33:30;13.98;;;6.50;;
65613;SDS011;52283;49.292;10.572;2024-01-16T06:35:56;15.40;;;6.80;;
65613;SDS011;52283;49.292;10.572;2024-01-16T06:38:23;16.10;;;6.25;;
65613;SDS011;52283;49.292;10.572;2024-01-16T06:40:51;12.98;;;6.35;;
65613;SDS011;52283;49.292;10.572;2024-01-16T06:43:17;11.85;;;5.90;;
65613;SDS011;52283;49.292;10.572;2024-01-16T06:45:44;13.95;;;6.90;;
65613;SDS011;52283;49.292;10.572;2024-01-16T06:48:10;10.98;;;5.97;;
65613;SDS011;52283;49.292;10.572;2024-01-16T06:50:37;13.63;;;5.63;;
65613;SDS011;52283;49.292;10.572;2024-01-16T06:53:03;13.30;;;6.20;;
65613;SDS011;52283;49.292;10.572;2024-01-16T06:55:30;12.10;;;6.20;;
65613;SDS011;52283;49.292;10.572;2024-01-16T06:57:58;16.52;;;6.70;;
65613;SDS011;52283;49.292;10.572;2024-01-16T07:00:24;10.82;;;5.75;;
65613;SDS011;52283;49.292;10.572;2024-01-16T07:02:52;9.38;;;6.05;;
65613;SDS011;52283;49.292;10.572;2024-01-16T07:05:19;18.55;;;6.95;;
65613;SDS011;52283;49.292;10.572;2024-01-16T07:07:46;16.70;;;6.78;;
65613;SDS011;52283;49.292;10.572;2024-01-16T07:10:12;21.67;;;6.38;;
65613;SDS011;52283;49.292;10.572;2024-01-16T07:12:43;11.82;;;6.80;;
65613;SDS011;52283;49.292;10.572;2024-01-16T07:15:11;21.63;;;6.20;;
65613;SDS011;52283;49.292;10.572;2024-01-16T07:17:38;22.70;;;6.47;;
65613;SDS011;52283;49.292;10.572;2024-01-16T07:20:05;13.82;;;5.70;;
65613;SDS011;52283;49.292;10.572;2024-01-16T07:22:32;18.17;;;6.50;;
65613;SDS011;52283;49.292;10.572;2024-01-16T07:24:59;14.82;;;5.15;;
65613;SDS011;52283;49.292;10.572;2024-01-16T07:27:25;14.57;;;6.47;;
65613;SDS011;52283;49.292;10.572;2024-01-16T07:29:52;16.63;;;5.45;;
65613;SDS011;52283;49.292;10.572;2024-01-16T07:32:20;16.17;;;6.13;;
65613;SDS011;52283;49.292;10.572;2024-01-16T07:34:46;15.45;;;6.32;;
65613;SDS011;52283;49.292;10.572;2024-01-16T07:37:13;19.13;;;6.18;;
65613;SDS011;52283;49.292;10.572;2024-01-16T07:39:40;17.58;;;7.00;;
65613;SDS011;52283;49.292;10.572;2024-01-16T07:42:07;15.30;;;6.10;;
65613;SDS011;52283;49.292;10.572;2024-01-16T07:44:34;15.77;;;5.28;;
65613;SDS011;52283;49.292;10.572;2024-01-16T07:47:00;17.48;;;5.82;;
65613;SDS011;52283;49.292;10.572;2024-01-16T07:49:28;11.32;;;6.25;;
65613;SDS011;52283;49.292;10.572;2024-01-16T07:51:54;17.25;;;5.55;;
65613;SDS011;52283;49.292;10.572;2024-01-16T07:54:21;15.52;;;6.32;;
65613;SDS011;52283;49.292;10.572;2024-01-16T07:56:47;15.70;;;5.97;;
65613;SDS011;52283;49.292;10.572;2024-01-16T07:59:14;12.57;;;5.65;;
65613;SDS011;52283;49.292;10.572;2024-01-16T08:01:40;12.82;;;5.90;;
65613;SDS011;52283;49.292;10.572;2024-01-16T08:04:07;11.07;;;5.15;;
65613;SDS011;52283;49.292;10.572;2024-01-16T08:06:34;16.73;;;6.35;;
65613;SDS011;52283;49.292;10.572;2024-01-16T08:09:01;16.00;;;6.20;;
65613;SDS011;52283;49.292;10.572;2024-01-16T08:11:28;16.58;;;6.20;;
65613;SDS011;52283;49.292;10.572;2024-01-16T08:13:56;20.15;;;5.60;;
65613;SDS011;52283;49.292;10.572;2024-01-16T08:16:22;12.68;;;6.90;;
65613;SDS011;52283;49.292;10.572;2024-01-16T08:18:49;15.45;;;6.75;;
65613;SDS011;52283;49.292;10.572;2024-01-16T08:21:15;13.10;;;5.70;;
65613;SDS011;52283;49.292;10.572;2024-01-16T08:23:43;37.00;;;12.68;;
65613;SDS011;52283;49.292;10.572;2024-01-16T08:26:10;18.15;;;5.95;;
65613;SDS011;52283;49.292;10.572;2024-01-16T08:28:36;13.25;;;6.70;;
65613;SDS011;52283;49.292;10.572;2024-01-16T08:31:03;11.80;;;5.10;;
65613;SDS011;52283;49.292;10.572;2024-01-16T08:33:30;12.60;;;5.45;;
65613;SDS011;52283;49.292;10.572;2024-01-16T08:35:57;13.10;;;6.05;;
65613;SDS011;52283;49.292;10.572;2024-01-16T08:38:24;14.25;;;5.82;;
65613;SDS011;52283;49.292;10.572;2024-01-16T08:40:51;12.27;;;6.45;;
65613;SDS011;52283;49.292;10.572;2024-01-16T08:43:18;15.95;;;6.45;;
65613;SDS011;52283;49.292;10.572;2024-01-16T08:45:44;19.73;;;6.43;;
65613;SDS011;52283;49.292;10.572;2024-01-16T08:48:12;14.38;;;6.90;;
65613;SDS011;52283;49.292;10.572;2024-01-16T08:50:40;13.50;;;6.00;;
65613;SDS011;52283;49.292;10.572;2024-01-16T08:53:06;10.85;;;5.70;;
65613;SDS011;52283;49.292;10.572;2024-01-16T08:55:33;10.50;;;5.20;;
65613;SDS011;52283;49.292;10.572;2024-01-16T08:58:00;27.25;;;8.95;;
65613;SDS011;52283;49.292;10.572;2024-01-16T09:00:27;14.60;;;5.07;;
65613;SDS011;52283;49.292;10.572;2024-01-16T09:02:54;14.05;;;6.32;;
65613;SDS011;52283;49.292;10.572;2024-01-16T09:05:20;23.65;;;6.90;;
65613;SDS011;52283;49.292;10.572;2024-01-16T09:07:50;11.95;;;5.20;;
65613;SDS011;52283;49.292;10.572;2024-01-16T09:10:17;14.55;;;6.80;;
65613;SDS011;52283;49.292;10.572;2024-01-16T09:12:43;13.85;;;6.03;;
65613;SDS011;52283;49.292;10.572;2024-01-16T09:15:11;24.40;;;8.10;;
65613;SDS011;52283;49.292;10.572;2024-01-16T09:17:38;20.33;;;8.65;;
65613;SDS011;52283;49.292;10.572;2024-01-16T09:20:05;14.95;;;5.32;;
65613;SDS011;52283;49.292;10.572;2024-01-16T09:22:33;20.58;;;11.15;;
65613;SDS011;52283;49.292;10.572;2024-01-16T09:24:59;11.15;;;5.47;;
65613;SDS011;52283;49.292;10.572;2024-01-16T09:27:26;11.80;;;5.03;;
65613;SDS011;52283;49.292;10.572;2024-01-16T09:29:52;8.88;;;5.22;;
65613;SDS011;52283;49.292;10.572;2024-01-16T09:32:20;12.20;;;4.60;;
65613;SDS011;52283;49.292;10.572;2024-01-16T09:34:47;11.18;;;4.93;;
65613;SDS011;52283;49.292;10.572;2024-01-16T09:37:13;8.38;;;4.50;;
65613;SDS011;52283;49.292;10.572;2024-01-16T09:39:40;7.75;;;4.70;;
65613;SDS011;52283;49.292;10.572;2024-01-16T09:42:06;15.02;;;5.68;;
65613;SDS011;52283;49.292;10.572;2024-01-16T09:44:33;13.30;;;6.68;;
65613;SDS011;52283;49.292;10.572;2024-01-16T09:47:01;8.38;;;5.03;;
65613;SDS011;52283;49.292;10.572;2024-01-16T09:49:30;9.07;;;5.18;;
65613;SDS011;52283;49.292;10.572;2024-01-16T09:51:56;9.15;;;4.40;;
65613;SDS011;52283;49.292;10.572;2024-01-16T09:54:24;14.05;;;4.82;;
65613;SDS011;52283;49.292;10.572;2024-01-16T09:56:51;10.27;;;3.90;;
65613;SDS011;52283;49.292;10.572;2024-01-16T09:59:22;14.68;;;5.60;;
65613;SDS011;52283;49.292;10.572;2024-01-16T10:01:50;13.02;;;5.50;;
65613;SDS011;52283;49.292;10.572;2024-01-16T10:04:20;9.95;;;4.28;;
65613;SDS011;52283;49.292;10.572;2024-01-16T10:06:48;15.05;;;5.05;;
65613;SDS011;52283;49.292;10.572;2024-01-16T10:09:17;15.60;;;4.93;;
65613;SDS011;52283;49.292;10.572;2024-01-16T10:11:43;11.40;;;4.93;;
65613;SDS011;52283;49.292;10.572;2024-01-16T10:14:11;15.45;;;4.65;;
65613;SDS011;52283;49.292;10.572;2024-01-16T10:16:56;10.57;;;4.30;;
65613;SDS011;52283;49.292;10.572;2024-01-16T10:19:24;19.63;;;4.57;;
65613;SDS011;52283;49.292;10.572;2024-01-16T10:21:53;21.55;;;5.00;;
65613;SDS011;52283;49.292;10.572;2024-01-16T10:24:27;8.57;;;4.20;;
65613;SDS011;52283;49.292;10.572;2024-01-16T10:26:57;9.80;;;3.97;;
65613;SDS011;52283;49.292;10.572;2024-01-16T10:29:26;9.57;;;5.45;;
65613;SDS011;52283;49.292;10.572;2024-01-16T10:31:52;11.35;;;4.38;;
65613;SDS011;52283;49.292;10.572;2024-01-16T10:34:19;6.82;;;3.67;;
65613;SDS011;52283;49.292;10.572;2024-01-16T10:36:47;10.52;;;4.15;;
65613;SDS011;52283;49.292;10.572;2024-01-16T10:39:17;9.18;;;3.95;;
65613;SDS011;52283;49.292;10.572;2024-01-16T10:41:50;9.23;;;3.95;;
65613;SDS011;52283;49.292;10.572;2024-01-16T10:44:20;10.68;;;3.90;;
65613;SDS011;52283;49.292;10.572;2024-01-16T10:46:46;10.05;;;3.35;;
65613;SDS011;52283;49.292;10.572;2024-01-16T10:49:12;4.43;;;3.38;;
65613;SDS011;52283;49.292;10.572;2024-01-16T10:51:39;5.55;;;3.40;;
65613;SDS011;52283;49.292;10.572;2024-01-16T10:54:10;10.55;;;4.03;;
65613;SDS011;52283;49.292;10.572;2024-01-16T10:56:40;6.18;;;2.97;;
65613;SDS011;52283;49.292;10.572;2024-01-16T11:01:43;8.90;;;3.13;;
65613;SDS011;52283;49.292;10.572;2024-01-16T11:04:13;6.93;;;2.50;;
65613;SDS011;52283;49.292;10.572;2024-01-16T11:06:41;9.48;;;3.00;;
65613;SDS011;52283;49.292;10.572;2024-01-16T11:09:09;6.88;;;2.95;;
65613;SDS011;52283;49.292;10.572;2024-01-16T11:11:41;6.63;;;2.95;;
65613;SDS011;52283;49.292;10.572;2024-01-16T11:14:10;8.95;;;3.13;;
65613;SDS011;52283;49.292;10.572;2024-01-16T11:16:38;8.05;;;3.47;;
65613;SDS011;52283;49.292;10.572;2024-01-16T11:19:07;9.82;;;3.88;;
65613;SDS011;52283;49.292;10.572;2024-01-16T11:21:34;7.93;;;3.67;;
65613;SDS011;52283;49.292;10.572;2024-01-16T11:24:02;6.63;;;3.50;;
65613;SDS011;52283;49.292;10.572;2024-01-16T11:26:29;11.65;;;4.63;;
65613;SDS011;52283;49.292;10.572;2024-01-16T11:28:59;9.02;;;3.63;;
65613;SDS011;52283;49.292;10.572;2024-01-16T11:31:29;8.52;;;3.55;;
65613;SDS011;52283;49.292;10.572;2024-01-16T11:33:57;11.23;;;4.85;;
65613;SDS011;52283;49.292;10.572;2024-01-16T11:36:46;5.18;;;2.90;;
65613;SDS011;52283;49.292;10.572;2024-01-16T11:39:17;5.15;;;3.20;;
65613;SDS011;52283;49.292;10.572;2024-01-16T11:41:48;6.28;;;2.70;;
65613;SDS011;52283;49.292;10.572;2024-01-16T11:47:05;7.75;;;2.58;;
65613;SDS011;52283;49.292;10.572;2024-01-16T11:49:32;11.90;;;5.63;;
65613;SDS011;52283;49.292;10.572;2024-01-16T11:51:59;10.88;;;3.65;;
65613;SDS011;52283;49.292;10.572;2024-01-16T11:54:26;9.43;;;2.80;;
65613;SDS011;52283;49.292;10.572;2024-01-16T11:57:07;9.65;;;3.05;;
65613;SDS011;52283;49.292;10.572;2024-01-16T11:59:58;12.82;;;3.70;;
65613;SDS011;52283;49.292;10.572;2024-01-16T12:02:30;10.68;;;3.85;;
65613;SDS011;52283;49.292;10.572;2024-01-16T12:05:04;7.55;;;3.08;;
65613;SDS011;52283;49.292;10.572;2024-01-16T12:07:42;8.18;;;2.80;;
65613;SDS011;52283;49.292;10.572;2024-01-16T12:10:09;6.30;;;2.42;;
65613;SDS011;52283;49.292;10.572;2024-01-16T12:12:35;6.00;;;2.67;;
65613;SDS011;52283;49.292;10.572;2024-01-16T12:15:03;4.55;;;2.15;;
65613;SDS011;52283;49.292;10.572;2024-01-16T12:17:31;8.57;;;2.63;;
65613;SDS011;52283;49.292;10.572;2024-01-16T12:19:58;6.07;;;2.40;;
65613;SDS011;52283;49.292;10.572;2024-01-16T12:22:25;3.88;;;2.13;;
65613;SDS011;52283;49.292;10.572;2024-01-16T12:24:55;6.50;;;2.53;;
65613;SDS011;52283;49.292;10.572;2024-01-16T12:27:22;6.07;;;2.55;;
65613;SDS011;52283;49.292;10.572;2024-01-16T12:29:49;3.60;;;2.25;;
65613;SDS011;52283;49.292;10.572;2024-01-16T12:32:18;5.85;;;2.00;;
65613;SDS011;52283;49.292;10.572;2024-01-16T12:34:47;4.80;;;1.83;;
65613;SDS011;52283;49.292;10.572;2024-01-16T12:37:14;4.43;;;1.92;;
65613;SDS011;52283;49.292;10.572;2024-01-16T12:39:39;6.20;;;2.15;;
65613;SDS011;52283;49.292;10.572;2024-01-16T12:42:06;8.93;;;3.40;;
65613;SDS011;52283;49.292;10.572;2024-01-16T12:44:34;7.95;;;2.42;;
65613;SDS011;52283;49.292;10.572;2024-01-16T12:47:01;5.32;;;1.85;;
65613;SDS011;52283;49.292;10.572;2024-01-16T12:49:29;4.47;;;2.10;;
65613;SDS011;52283;49.292;10.572;2024-01-16T12:52:14;7.80;;;2.60;;
65613;SDS011;52283;49.292;10.572;2024-01-16T12:54:43;3.38;;;2.15;;
65613;SDS011;52283;49.292;10.572;2024-01-16T12:57:09;10.77;;;4.15;;
65613;SDS011;52283;49.292;10.572;2024-01-16T12:59:39;26.33;;;8.73;;
65613;SDS011;52283;49.292;10.572;2024-01-16T13:02:05;13.07;;;4.80;;
65613;SDS011;52283;49.292;10.572;2024-01-16T13:04:33;8.95;;;3.53;;
65613;SDS011;52283;49.292;10.572;2024-01-16T13:07:01;22.85;;;7.43;;
65613;SDS011;52283;49.292;10.572;2024-01-16T13:09:27;7.20;;;3.03;;
65613;SDS011;52283;49.292;10.572;2024-01-16T13:11:54;8.20;;;2.70;;
65613;SDS011;52283;49.292;10.572;2024-01-16T13:14:23;6.85;;;2.13;;
65613;SDS011;52283;49.292;10.572;2024-01-16T13:16:50;3.25;;;2.17;;
65613;SDS011;52283;49.292;10.572;2024-01-16T13:19:19;5.78;;;3.00;;
65613;SDS011;52283;49.292;10.572;2024-01-16T13:21:47;7.35;;;3.13;;
65613;SDS011;52283;49.292;10.572;2024-01-16T13:24:14;12.00;;;2.08;;
65613;SDS011;52283;49.292;10.572;2024-01-16T13:26:39;14.00;;;7.13;;
65613;SDS011;52283;49.292;10.572;2024-01-16T13:29:06;7.43;;;3.17;;
65613;SDS011;52283;49.292;10.572;2024-01-16T13:31:34;7.97;;;3.28;;
65613;SDS011;52283;49.292;10.572;2024-01-16T13:34:00;7.22;;;3.20;;
65613;SDS011;52283;49.292;10.572;2024-01-16T13:36:27;11.68;;;3.58;;
65613;SDS011;52283;49.292;10.572;2024-01-16T13:38:55;4.60;;;2.92;;
65613;SDS011;52283;49.292;10.572;2024-01-16T13:41:21;8.52;;;2.28;;
65613;SDS011;52283;49.292;10.572;2024-01-16T13:43:48;9.98;;;3.35;;
65613;SDS011;52283;49.292;10.572;2024-01-16T13:46:15;9.48;;;3.22;;
65613;SDS011;52283;49.292;10.572;2024-01-16T13:48:42;10.02;;;3.05;;
65613;SDS011;52283;49.292;10.572;2024-01-16T13:51:09;7.75;;;3.00;;
65613;SDS011;52283;49.292;10.572;2024-01-16T13:53:35;11.68;;;5.22;;
65613;SDS011;52283;49.292;10.572;2024-01-16T13:56:03;7.10;;;2.50;;
65613;SDS011;52283;49.292;10.572;2024-01-16T13:58:30;13.57;;;4.20;;
65613;SDS011;52283;49.292;10.572;2024-01-16T14:00:56;25.95;;;6.95;;
65613;SDS011;52283;49.292;10.572;2024-01-16T14:03:23;16.40;;;10.82;;
65613;SDS011;52283;49.292;10.572;2024-01-16T14:05:49;14.93;;;6.82;;
65613;SDS011;52283;49.292;10.572;2024-01-16T14:08:16;9.32;;;2.88;;
65613;SDS011;52283;49.292;10.572;2024-01-16T14:10:42;12.13;;;4.30;;
65613;SDS011;52283;49.292;10.572;2024-01-16T14:13:10;7.25;;;3.13;;
65613;SDS011;52283;49.292;10.572;2024-01-16T14:15:36;5.55;;;2.28;;
65613;SDS011;52283;49.292;10.572;2024-01-16T14:18:04;3.92;;;1.70;;
65613;SDS011;52283;49.292;10.572;2024-01-16T14:20:30;4.90;;;1.98;;
65613;SDS011;52283;49.292;10.572;2024-01-16T14:22:57;2.78;;;1.60;;
65613;SDS011;52283;49.292;10.572;2024-01-16T14:25:23;6.95;;;1.52;;
65613;SDS011;52283;49.292;10.572;2024-01-16T14:27:55;5.35;;;1.75;;
65613;SDS011;52283;49.292;10.572;2024-01-16T14:30:24;4.50;;;2.20;;
65613;SDS011;52283;49.292;10.572;2024-01-16T14:32:51;12.07;;;4.45;;
65613;SDS011;52283;49.292;10.572;2024-01-16T14:35:18;9.88;;;2.65;;